Time;durP1;ratioP1;P1;durP2;ratioP2;P2;SDS_P1;SDS_P2;PMS_P1;PMS_P2;Temp;Humidity;BMP_temperature;BMP_pressure;BME280_temperature;BME280_humidity;BME280_pressure;Samples;Min_cycle;Max_cycle;Signal;HPM_P1;HPM_P2
2024/03/14 00:02:11;;;;;;;133.53;47.50;;;4.10;38.30;;;;;;4452365;28;659192;-75
2024/03/14 00:04:59;;;;;;;147.60;49.00;;;4.00;56.30;;;;;;4417964;28;658805;-75
2024/03/14 00:07:47;;;;;;;302.17;86.77;;;4.00;36.80;;;;;;4436388;28;659599;-74
2024/03/14 00:10:34;;;;;;;184.77;62.70;;;3.90;29.40;;;;;;4417975;28;658995;-74
2024/03/14 00:13:23;;;;;;;139.00;52.67;;;3.90;31.60;;;;;;4436262;28;658292;-74
2024/03/14 00:16:10;;;;;;;264.00;72.30;;;3.80;35.30;;;;;;4413566;28;659216;-74
2024/03/14 00:18:59;;;;;;;347.73;90.87;;;3.60;29.30;;;;;;4417407;28;659394;-74
2024/03/14 00:21:47;;;;;;;308.88;84.18;;;3.50;38.60;;;;;;4436117;28;659207;-74
2024/03/14 00:24:34;;;;;;;249.17;69.17;;;3.50;52.50;;;;;;4416078;28;658991;-74
2024/03/14 00:27:22;;;;;;;224.53;69.33;;;3.40;66.10;;;;;;4436126;28;658764;-74
2024/03/14 00:30:09;;;;;;;161.90;50.53;;;3.50;82.30;;;;;;4413490;28;659502;-74
2024/03/14 00:32:59;;;;;;;166.03;61.23;;;3.50;84.60;;;;;;4417056;28;658666;-74
2024/03/14 00:35:46;;;;;;;120.17;45.93;;;3.40;89.50;;;;;;4440087;28;658868;-74
2024/03/14 00:38:33;;;;;;;127.43;46.67;;;3.40;90.50;;;;;;4417095;28;658700;-74
2024/03/14 00:41:21;;;;;;;211.60;61.27;;;3.40;91.70;;;;;;4436429;28;658537;-74
2024/03/14 00:44:08;;;;;;;213.93;66.23;;;3.40;94.80;;;;;;4416923;28;658807;-74
2024/03/14 00:46:55;;;;;;;212.27;63.20;;;3.30;91.30;;;;;;4438063;28;659303;-74
2024/03/14 00:49:43;;;;;;;141.83;52.10;;;3.30;93.30;;;;;;4415782;28;658993;-74
2024/03/14 00:52:30;;;;;;;128.60;47.90;;;3.20;89.70;;;;;;4435878;28;659429;-74
2024/03/14 00:55:18;;;;;;;137.90;50.13;;;3.20;75.60;;;;;;4431175;28;658982;-74
2024/03/14 00:58:06;;;;;;;134.17;48.00;;;3.20;74.50;;;;;;4439645;28;658477;-74
2024/03/14 01:00:53;;;;;;;197.53;70.03;;;3.10;74.70;;;;;;4416937;28;658802;-74
2024/03/14 01:03:41;;;;;;;159.83;44.77;;;3.10;76.80;;;;;;4436030;28;659047;-74
2024/03/14 01:06:28;;;;;;;119.25;41.80;;;3.10;73.50;;;;;;4412542;28;658781;-74
2024/03/14 01:09:16;;;;;;;110.13;42.00;;;3.00;70.40;;;;;;4435782;28;659428;-74
2024/03/14 01:12:04;;;;;;;145.13;48.57;;;3.10;79.50;;;;;;4413516;28;658950;-74
2024/03/14 01:14:51;;;;;;;234.57;72.87;;;3.10;67.60;;;;;;4436349;28;658707;-74
2024/03/14 01:17:39;;;;;;;180.70;50.20;;;3.00;64.50;;;;;;4414827;28;658722;-74
2024/03/14 01:20:26;;;;;;;126.53;45.37;;;3.00;61.20;;;;;;4439769;28;658392;-74
2024/03/14 01:23:13;;;;;;;172.60;56.83;;;3.00;69.50;;;;;;4416816;28;658961;-74
2024/03/14 01:26:01;;;;;;;164.87;55.20;;;3.00;62.60;;;;;;4435727;28;659618;-74
2024/03/14 01:28:50;;;;;;;155.30;52.20;;;3.00;56.20;;;;;;4414607;28;658848;-74
2024/03/14 01:31:37;;;;;;;163.20;53.37;;;2.90;51.30;;;;;;4440060;28;659076;-74
2024/03/14 01:34:24;;;;;;;135.73;47.37;;;2.90;50.60;;;;;;4427014;28;659574;-74
2024/03/14 01:37:11;;;;;;;144.23;46.70;;;3.00;56.00;;;;;;4442843;28;658457;-74
2024/03/14 01:39:59;;;;;;;87.57;34.83;;;3.00;51.70;;;;;;4419956;28;658704;-74
2024/03/14 01:42:46;;;;;;;133.80;44.73;;;3.00;55.50;;;;;;4439948;28;657822;-74
2024/03/14 01:45:33;;;;;;;149.97;47.77;;;3.00;60.80;;;;;;4419734;28;659159;-75
2024/03/14 01:48:21;;;;;;;229.73;64.23;;;3.10;72.40;;;;;;4441691;28;659226;-74
2024/03/14 01:51:08;;;;;;;139.67;46.90;;;3.20;91.40;;;;;;4419333;28;659018;-74
2024/03/14 01:53:56;;;;;;;112.00;40.17;;;3.40;96.00;;;;;;4441055;27;659760;-74
2024/03/14 01:56:57;;;;;;;119.13;41.07;;;3.40;99.90;;;;;;4436428;27;658855;-75
2024/03/14 01:59:47;;;;;;;187.90;51.27;;;3.50;99.90;;;;;;4435689;27;659843;-75
2024/03/14 02:02:35;;;;;;;138.13;42.83;;;3.50;99.90;;;;;;4442602;27;659472;-74
2024/03/14 02:05:23;;;;;;;137.83;44.40;;;3.50;99.90;;;;;;4465552;27;658942;-74
2024/03/14 02:08:11;;;;;;;126.13;43.03;;;3.40;99.90;;;;;;4473973;27;659653;-74
2024/03/14 02:10:58;;;;;;;140.07;46.53;;;3.30;99.90;;;;;;4454314;27;658382;-74
2024/03/14 02:13:46;;;;;;;131.13;43.90;;;3.10;93.30;;;;;;4473966;27;659788;-74
2024/03/14 02:16:33;;;;;;;95.13;34.40;;;3.10;90.60;;;;;;4454784;27;659018;-74
2024/03/14 02:19:21;;;;;;;389.27;52.25;;;3.00;89.90;;;;;;4474746;27;658429;-75
2024/03/14 02:22:08;;;;;;;140.67;44.80;;;2.90;81.60;;;;;;4454331;27;658581;-74
2024/03/14 02:24:55;;;;;;;152.23;45.20;;;2.80;77.50;;;;;;4477124;27;658745;-74
2024/03/14 02:27:43;;;;;;;172.57;47.23;;;2.70;68.60;;;;;;4454297;27;658983;-74
2024/03/14 02:30:30;;;;;;;129.93;39.07;;;2.70;71.40;;;;;;4474015;27;660182;-74
2024/03/14 02:33:18;;;;;;;279.17;47.80;;;2.70;72.10;;;;;;4454584;27;658902;-74
2024/03/14 02:36:06;;;;;;;258.43;55.20;;;2.50;56.00;;;;;;4477769;27;659417;-74
2024/03/14 02:38:54;;;;;;;146.93;45.53;;;2.40;56.40;;;;;;4454302;27;659439;-75
2024/03/14 02:41:41;;;;;;;371.93;76.50;;;2.40;69.60;;;;;;4473671;27;659467;-74
2024/03/14 02:44:28;;;;;;;317.17;68.80;;;2.50;93.20;;;;;;4449031;27;658435;-74
2024/03/14 02:47:17;;;;;;;307.27;67.77;;;2.50;84.00;;;;;;4475812;27;659456;-75
2024/03/14 02:50:09;;;;;;;201.33;51.63;;;2.50;82.50;;;;;;4450521;27;660003;-75
2024/03/14 02:52:57;;;;;;;266.67;60.90;;;2.40;82.00;;;;;;4455074;27;658858;-74
2024/03/14 02:55:44;;;;;;;188.87;49.27;;;2.30;81.00;;;;;;4436157;28;658964;-75
2024/03/14 02:58:31;;;;;;;137.33;43.37;;;2.30;83.30;;;;;;4438382;28;658460;-75
2024/03/14 03:01:19;;;;;;;119.95;39.88;;;2.30;89.90;;;;;;4418831;28;658484;-75
2024/03/14 03:04:06;;;;;;;108.87;37.90;;;2.30;90.00;;;;;;4451099;28;659277;-75
2024/03/14 03:06:55;;;;;;;143.43;41.33;;;2.20;87.90;;;;;;4418941;28;658861;-75
2024/03/14 03:09:42;;;;;;;116.37;38.17;;;2.30;98.50;;;;;;4441773;28;658892;-75
2024/03/14 03:12:30;;;;;;;113.20;37.80;;;2.20;82.00;;;;;;4451157;28;659035;-75
2024/03/14 03:15:18;;;;;;;85.30;31.37;;;2.20;76.10;;;;;;4420018;28;658893;-75
2024/03/14 03:18:07;;;;;;;74.83;28.20;;;2.10;71.10;;;;;;4438948;28;658117;-75
2024/03/14 03:20:54;;;;;;;80.10;28.93;;;2.10;85.50;;;;;;4416234;28;658555;-75
2024/03/14 03:23:42;;;;;;;74.63;27.70;;;2.10;95.20;;;;;;4438773;28;657367;-75
2024/03/14 03:26:28;;;;;;;65.70;26.03;;;2.00;94.50;;;;;;4419595;28;658126;-75
2024/03/14 03:29:16;;;;;;;66.90;25.23;;;2.00;94.70;;;;;;4442681;28;657826;-75
2024/03/14 03:32:03;;;;;;;64.33;24.30;;;1.90;93.90;;;;;;4419823;28;657880;-75
2024/03/14 03:34:51;;;;;;;62.77;24.30;;;1.80;95.30;;;;;;4438670;28;657937;-75
2024/03/14 03:37:38;;;;;;;66.00;26.00;;;1.80;97.80;;;;;;4419388;28;658052;-75
2024/03/14 03:40:30;;;;;;;80.68;29.05;;;1.80;99.90;;;;;;4442279;28;658304;-75
2024/03/14 03:43:18;;;;;;;186.90;46.90;;;1.70;99.60;;;;;;4405889;28;657485;-75
2024/03/14 03:46:06;;;;;;;428.97;91.17;;;1.70;98.10;;;;;;4437262;28;659253;-75
2024/03/14 03:48:54;;;;;;;379.97;86.50;;;1.60;98.10;;;;;;4414362;28;658637;-75
2024/03/14 03:51:40;;;;;;;83.13;27.80;;;1.60;98.40;;;;;;4437015;28;659239;-75
2024/03/14 03:54:28;;;;;;;77.00;27.30;;;1.50;95.50;;;;;;4423744;28;657767;-75
2024/03/14 03:57:14;;;;;;;74.90;26.00;;;1.30;96.30;;;;;;4451580;28;658701;-75
2024/03/14 04:00:08;;;;;;;78.85;26.42;;;1.30;99.90;;;;;;4441032;28;657656;-75
2024/03/14 04:03:07;;;;;;;85.70;27.33;;;1.30;99.90;;;;;;4433600;28;657810;-75
2024/03/14 04:05:55;;;;;;;78.77;27.27;;;1.30;99.90;;;;;;4429303;28;658298;-75
2024/03/14 04:08:42;;;;;;;70.70;25.50;;;1.30;99.90;;;;;;4419480;28;657803;-75
2024/03/14 04:11:29;;;;;;;78.87;27.37;;;1.30;99.90;;;;;;4441251;28;657676;-75
2024/03/14 04:14:16;;;;;;;71.57;27.90;;;1.30;99.90;;;;;;4441137;28;657976;-75
2024/03/14 04:17:04;;;;;;;75.97;27.57;;;1.20;99.90;;;;;;4418581;28;657793;-75
2024/03/14 04:19:52;;;;;;;76.20;26.57;;;1.20;99.90;;;;;;4441676;28;657471;-75
2024/03/14 04:22:40;;;;;;;69.33;26.30;;;1.20;99.90;;;;;;4418356;28;657148;-75
2024/03/14 04:25:28;;;;;;;73.83;26.00;;;1.20;99.90;;;;;;4418827;28;657812;-76
2024/03/14 04:28:18;;;;;;;78.40;27.93;;;1.20;99.90;;;;;;4455244;28;658286;-75
2024/03/14 04:31:05;;;;;;;80.23;27.27;;;1.20;99.90;;;;;;4414775;28;658080;-75
2024/03/14 04:33:54;;;;;;;76.43;26.87;;;1.20;99.90;;;;;;4414546;28;658394;-76
2024/03/14 04:36:42;;;;;;;82.70;29.02;;;1.10;99.90;;;;;;4441630;28;658162;-75
2024/03/14 04:39:29;;;;;;;66.83;23.90;;;1.10;99.90;;;;;;4418629;28;657532;-75
2024/03/14 04:42:17;;;;;;;69.73;24.43;;;1.10;99.90;;;;;;4441412;28;658046;-75
2024/03/14 04:45:06;;;;;;;88.13;29.50;;;1.00;99.90;;;;;;4417723;28;658277;-75
2024/03/14 04:47:54;;;;;;;110.63;34.20;;;1.00;99.90;;;;;;4418636;28;658215;-75
2024/03/14 04:50:43;;;;;;;136.40;38.20;;;1.00;99.90;;;;;;4440079;28;658836;-75
2024/03/14 04:53:30;;;;;;;256.67;61.10;;;1.00;99.90;;;;;;4411999;28;658931;-75
2024/03/14 04:56:18;;;;;;;332.83;83.10;;;1.00;99.90;;;;;;4425433;28;658854;-75
2024/03/14 04:59:08;;;;;;;369.93;97.47;;;1.00;99.90;;;;;;4435953;28;659669;-75
2024/03/14 05:01:56;;;;;;;367.90;100.63;;;1.00;99.90;;;;;;4417709;28;658950;-75
2024/03/14 05:04:43;;;;;;;217.63;61.27;;;1.00;99.90;;;;;;4433628;28;659575;-75
2024/03/14 05:07:31;;;;;;;111.70;24.27;;;1.00;99.90;;;;;;4453565;28;660153;-75
2024/03/14 05:10:18;;;;;;;87.10;28.60;;;0.80;99.90;;;;;;4436377;27;658413;-75
2024/03/14 05:13:06;;;;;;;95.13;31.97;;;0.80;99.90;;;;;;4458379;27;658256;-75
2024/03/14 05:15:54;;;;;;;103.07;33.33;;;0.90;99.90;;;;;;4438221;27;657956;-75
2024/03/14 05:18:41;;;;;;;158.10;46.00;;;0.90;99.90;;;;;;4457657;27;658868;-75
2024/03/14 05:21:29;;;;;;;180.60;54.37;;;1.00;99.90;;;;;;4438415;27;658486;-75
2024/03/14 05:24:16;;;;;;;177.27;51.57;;;1.00;99.90;;;;;;4457464;27;658428;-75
2024/03/14 05:27:04;;;;;;;175.20;54.08;;;1.00;99.90;;;;;;4438210;27;659249;-75
2024/03/14 05:29:51;;;;;;;192.70;58.73;;;0.90;99.90;;;;;;4457194;27;658651;-75
2024/03/14 05:32:38;;;;;;;228.67;70.60;;;1.00;99.90;;;;;;4437927;27;659210;-75
2024/03/14 05:35:26;;;;;;;197.60;66.20;;;1.10;99.90;;;;;;4457270;27;658577;-74
2024/03/14 05:38:14;;;;;;;142.30;43.80;;;1.20;99.90;;;;;;4438010;27;659065;-75
2024/03/14 05:41:01;;;;;;;131.70;40.33;;;1.20;99.90;;;;;;4457165;27;659027;-75
2024/03/14 05:43:48;;;;;;;113.23;37.10;;;1.40;99.90;;;;;;4435519;27;658672;-75
2024/03/14 05:46:36;;;;;;;121.90;36.80;;;1.50;99.90;;;;;;4460600;27;660109;-75
2024/03/14 05:49:24;;;;;;;117.53;37.77;;;1.60;99.90;;;;;;4437722;27;658377;-74
2024/03/14 05:52:11;;;;;;;121.17;39.93;;;1.80;99.90;;;;;;4456875;27;658951;-75
2024/03/14 05:54:58;;;;;;;111.83;34.90;;;1.90;99.90;;;;;;4441671;27;658442;-75
2024/03/14 05:57:46;;;;;;;93.83;31.53;;;1.90;99.90;;;;;;4456653;27;659329;-75
2024/03/14 06:00:33;;;;;;;95.03;31.33;;;2.00;99.90;;;;;;4438497;27;658273;-75
2024/03/14 06:03:20;;;;;;;95.27;32.90;;;2.10;99.90;;;;;;4458387;27;658286;-75
2024/03/14 06:06:09;;;;;;;210.47;69.60;;;2.30;99.90;;;;;;4438153;27;657484;-75
2024/03/14 06:08:56;;;;;;;152.67;50.00;;;2.50;99.90;;;;;;4456673;27;658697;-75
2024/03/14 06:11:43;;;;;;;183.73;59.80;;;2.70;99.90;;;;;;4436238;27;659089;-75
2024/03/14 06:14:32;;;;;;;115.70;39.13;;;2.90;99.90;;;;;;4460075;27;659838;-75
2024/03/14 06:17:19;;;;;;;102.63;37.00;;;3.00;99.90;;;;;;4437782;27;659306;-75
2024/03/14 06:20:09;;;;;;;100.03;34.03;;;3.00;99.90;;;;;;4460019;27;659256;-75
2024/03/14 06:22:58;;;;;;;116.97;42.33;;;3.10;99.90;;;;;;4436326;27;658495;-74
2024/03/14 06:25:45;;;;;;;127.37;43.80;;;3.20;99.90;;;;;;4433782;27;659325;-75
2024/03/14 06:28:33;;;;;;;139.47;44.13;;;3.30;99.90;;;;;;4436749;27;659068;-75
2024/03/14 06:31:20;;;;;;;132.03;39.53;;;3.50;99.90;;;;;;4460135;27;659383;-75
2024/03/14 06:34:08;;;;;;;111.33;38.70;;;3.60;99.90;;;;;;4437481;27;658704;-74
2024/03/14 06:36:56;;;;;;;127.20;42.50;;;3.70;99.90;;;;;;4459176;27;658873;-74
2024/03/14 06:39:45;;;;;;;123.77;41.73;;;3.70;99.90;;;;;;4437078;27;658715;-75
2024/03/14 06:42:33;;;;;;;128.70;42.43;;;3.70;99.90;;;;;;4455494;27;658446;-75
2024/03/14 06:45:21;;;;;;;119.20;38.43;;;3.80;99.90;;;;;;4459245;27;659428;-74
2024/03/14 06:48:09;;;;;;;119.07;41.13;;;4.00;99.90;;;;;;4436652;27;658675;-75
2024/03/14 06:50:56;;;;;;;147.80;45.60;;;4.10;99.90;;;;;;4456030;27;658542;-75
2024/03/14 06:53:45;;;;;;;535.67;119.93;;;4.20;99.90;;;;;;4435609;27;658193;-75
2024/03/14 06:56:33;;;;;;;608.93;144.57;;;4.40;99.90;;;;;;4447211;27;659481;-75
2024/03/14 06:59:20;;;;;;;315.13;82.63;;;4.50;99.90;;;;;;4454343;27;660608;-74
2024/03/14 07:02:08;;;;;;;273.83;72.57;;;4.70;99.90;;;;;;4443791;28;659592;-74
2024/03/14 07:04:56;;;;;;;175.43;53.93;;;4.70;99.90;;;;;;4437816;28;660800;-74
2024/03/14 07:07:44;;;;;;;188.10;56.33;;;4.90;99.90;;;;;;4418320;28;659011;-75
2024/03/14 07:10:31;;;;;;;224.57;70.70;;;4.80;99.90;;;;;;4441020;28;659176;-74
2024/03/14 07:13:19;;;;;;;268.47;76.80;;;5.10;99.90;;;;;;4418052;28;659174;-75
2024/03/14 07:16:09;;;;;;;250.90;72.70;;;5.10;99.90;;;;;;4437641;28;658344;-74
2024/03/14 07:18:56;;;;;;;202.20;63.77;;;5.30;99.90;;;;;;4418717;28;659451;-75
2024/03/14 07:21:44;;;;;;;225.47;74.03;;;5.40;99.90;;;;;;4414709;28;658543;-75
2024/03/14 07:24:31;;;;;;;194.43;63.93;;;5.60;99.90;;;;;;4440678;28;658510;-75
2024/03/14 07:27:19;;;;;;;172.00;53.57;;;5.70;99.90;;;;;;4418037;28;659042;-75
2024/03/14 07:30:13;;;;;;;156.90;55.03;;;5.90;99.90;;;;;;4437442;28;658332;-74
2024/03/14 07:33:00;;;;;;;167.47;53.60;;;6.00;98.10;;;;;;4416004;28;659435;-75
2024/03/14 07:35:48;;;;;;;158.50;55.17;;;6.10;70.90;;;;;;4417757;28;658791;-75
2024/03/14 07:38:35;;;;;;;156.87;53.97;;;6.10;46.50;;;;;;4437672;28;659105;-75
2024/03/14 07:41:23;;;;;;;163.80;56.53;;;6.20;17.10;;;;;;4416739;28;658845;-75
2024/03/14 07:44:10;;;;;;;160.50;58.40;;;6.30;1.00;;;;;;4436882;28;660505;-75
2024/03/14 07:46:58;;;;;;;154.77;56.77;;;6.40;1.00;;;;;;4419029;28;657360;-75
2024/03/14 07:49:45;;;;;;;140.40;53.80;;;6.50;99.90;;;;;;4438596;28;658856;-74
2024/03/14 07:52:33;;;;;;;131.52;48.47;;;6.40;58.40;;;;;;4422402;28;659562;-75
2024/03/14 07:55:21;;;;;;;145.87;52.83;;;6.40;1.00;;;;;;4451488;27;658894;-74
2024/03/14 07:58:09;;;;;;;149.33;54.53;;;6.50;1.00;;;;;;4436405;27;657560;-75
2024/03/14 08:00:56;;;;;;;149.50;55.67;;;6.60;99.90;;;;;;4459564;27;657438;-75
2024/03/14 08:03:45;;;;;;;136.83;51.73;;;6.60;99.90;;;;;;4434673;27;658585;-75
2024/03/14 08:06:39;;;;;;;129.98;50.65;;;6.80;99.90;;;;;;4435984;27;658996;-75
2024/03/14 08:09:27;;;;;;;116.93;46.60;;;6.90;99.90;;;;;;4437308;27;659167;-75
2024/03/14 08:12:15;;;;;;;118.63;48.73;;;7.00;99.90;;;;;;4435688;27;658661;-75
2024/03/14 08:15:11;;;;;;;114.43;44.57;;;7.10;99.90;;;;;;4437130;27;658811;-75
2024/03/14 08:17:59;;;;;;;95.35;40.40;;;7.10;1.00;;;;;;4433901;27;659268;-75
2024/03/14 08:20:47;;;;;;;91.87;39.10;;;7.30;1.00;;;;;;4460838;27;656473;-74
2024/03/14 08:23:35;;;;;;;76.53;34.30;;;7.40;1.00;;;;;;4433764;27;658117;-74
2024/03/14 08:26:22;;;;;;;95.20;39.07;;;7.10;87.00;;;;;;4448021;27;657650;-74
2024/03/14 08:29:10;;;;;;;89.20;39.83;;;7.10;1.00;;;;;;4455563;28;659086;-74
2024/03/14 08:31:59;;;;;;;84.63;37.13;;;7.10;1.00;;;;;;4437914;27;656508;-75
2024/03/14 08:34:47;;;;;;;87.23;37.80;;;7.30;99.90;;;;;;4457193;28;657156;-75
2024/03/14 08:37:35;;;;;;;82.40;37.70;;;7.40;1.00;;;;;;4433036;28;658750;-74
2024/03/14 08:40:23;;;;;;;71.73;33.80;;;7.60;99.90;;;;;;4451535;28;657021;-74
2024/03/14 08:43:11;;;;;;;71.27;33.97;;;7.70;99.90;;;;;;4455582;28;658714;-74
2024/03/14 08:45:58;;;;;;;69.80;32.10;;;7.80;59.20;;;;;;4439241;27;657634;-74
2024/03/14 08:48:46;;;;;;;71.80;32.03;;;7.80;1.00;;;;;;4462818;27;658396;-74
2024/03/14 08:51:37;;;;;;;66.53;32.03;;;7.80;99.90;;;;;;4441105;27;656455;-74
2024/03/14 08:54:33;;;;;;;63.77;30.13;;;8.10;1.00;;;;;;4436553;27;658373;-74
2024/03/14 08:57:25;;;;;;;69.00;31.07;;;8.10;99.90;;;;;;4421187;28;657033;-74
2024/03/14 09:00:17;;;;;;;56.33;29.00;;;8.30;1.00;;;;;;4400079;28;658111;-74
2024/03/14 09:03:05;;;;;;;60.00;25.80;;;8.30;99.90;;;;;;4431095;28;656971;-74
2024/03/14 09:05:53;;;;;;;69.27;31.47;;;8.40;1.00;;;;;;4437756;28;657904;-74
2024/03/14 09:08:41;;;;;;;62.40;28.33;;;8.60;99.90;;;;;;4446201;28;657063;-74
2024/03/14 09:11:29;;;;;;;57.60;25.70;;;8.90;1.00;;;;;;4422034;28;657674;-74
2024/03/14 09:14:16;;;;;;;57.90;26.90;;;8.90;1.00;;;;;;4441535;28;657251;-74
2024/03/14 09:17:04;;;;;;;42.50;13.73;;;9.10;99.90;;;;;;4422772;28;656603;-74
2024/03/14 09:19:52;;;;;;;65.50;29.70;;;9.30;99.90;;;;;;4444739;28;657623;-74
2024/03/14 09:22:39;;;;;;;62.83;30.33;;;8.60;99.90;;;;;;4421342;28;658322;-74
2024/03/14 09:25:27;;;;;;;85.53;22.03;;;8.90;1.00;;;;;;4438580;28;658225;-74
2024/03/14 09:28:14;;;;;;;67.33;31.07;;;9.10;78.10;;;;;;4422823;28;657025;-74
2024/03/14 09:31:01;;;;;;;62.37;29.77;;;9.20;20.50;;;;;;4439833;28;657692;-74
2024/03/14 09:33:49;;;;;;;60.50;29.33;;;9.50;1.00;;;;;;4417128;28;657655;-74
2024/03/14 09:36:36;;;;;;;62.37;29.37;;;9.30;99.90;;;;;;4441055;28;656924;-74
2024/03/14 09:39:24;;;;;;;58.67;27.30;;;9.50;99.90;;;;;;4417043;28;657922;-74
2024/03/14 09:42:11;;;;;;;58.63;28.10;;;9.80;99.90;;;;;;4443172;28;657490;-74
2024/03/14 09:44:58;;;;;;;56.43;27.53;;;9.70;99.90;;;;;;4421322;28;657930;-74
2024/03/14 09:47:46;;;;;;;57.10;28.23;;;9.70;99.90;;;;;;4443906;28;658449;-73
2024/03/14 09:50:35;;;;;;;59.57;26.73;;;9.70;1.00;;;;;;4417229;28;657189;-73
2024/03/14 09:53:26;;;;;;;56.63;27.00;;;9.60;99.90;;;;;;4422223;28;656852;-73
2024/03/14 09:56:14;;;;;;;54.70;22.87;;;9.40;99.90;;;;;;4420942;28;657497;-73
2024/03/14 09:59:02;;;;;;;60.97;27.73;;;9.30;1.00;;;;;;4440309;28;658206;-73
2024/03/14 10:01:49;;;;;;;57.13;25.20;;;9.60;1.00;;;;;;4424574;27;657268;-73
2024/03/14 10:04:36;;;;;;;57.50;26.10;;;9.60;14.10;;;;;;4462643;27;656863;-73
2024/03/14 10:07:24;;;;;;;65.73;27.50;;;9.50;99.90;;;;;;4437225;27;657820;-73
2024/03/14 10:10:11;;;;;;;63.40;27.10;;;9.60;99.90;;;;;;4457841;27;657558;-73
2024/03/14 10:12:58;;;;;;;59.27;25.73;;;9.60;1.00;;;;;;4438239;27;657536;-73
2024/03/14 10:15:49;;;;;;;57.97;28.57;;;9.90;99.90;;;;;;4458458;27;658190;-73
2024/03/14 10:18:38;;;;;;;55.70;27.53;;;10.00;99.90;;;;;;4434996;27;657522;-73
2024/03/14 10:21:26;;;;;;;61.60;26.67;;;9.90;1.00;;;;;;4437563;27;659255;-73
2024/03/14 10:24:16;;;;;;;46.60;21.37;;;10.30;1.00;;;;;;4439038;27;657408;-73
2024/03/14 10:27:04;;;;;;;60.03;26.95;;;10.20;1.00;;;;;;4438586;27;657411;-73
2024/03/14 10:29:54;;;;;;;63.60;26.67;;;9.90;99.90;;;;;;4456367;27;658355;-73
2024/03/14 10:32:43;;;;;;;55.33;25.97;;;10.20;1.00;;;;;;4434023;27;658101;-73
2024/03/14 10:35:31;;;;;;;51.03;23.53;;;10.40;99.90;;;;;;4438292;27;658537;-73
2024/03/14 10:38:20;;;;;;;54.27;23.10;;;10.40;99.90;;;;;;4436926;27;659196;-73
2024/03/14 10:41:09;;;;;;;50.30;24.73;;;10.50;99.90;;;;;;4460556;27;658029;-73
2024/03/14 10:43:56;;;;;;;50.60;25.17;;;10.50;99.90;;;;;;4430965;27;658391;-73
2024/03/14 10:46:44;;;;;;;49.80;23.47;;;10.70;1.00;;;;;;4436325;27;658806;-73
2024/03/14 10:49:33;;;;;;;57.33;25.23;;;10.70;1.00;;;;;;4461168;27;657102;-73
2024/03/14 10:52:21;;;;;;;44.97;19.10;;;11.10;1.00;;;;;;4438501;27;658488;-72
2024/03/14 10:55:10;;;;;;;49.33;21.43;;;11.00;99.90;;;;;;4437989;27;657541;-73
2024/03/14 10:57:58;;;;;;;50.23;21.50;;;10.20;1.00;;;;;;4435346;27;658795;-73
2024/03/14 11:00:46;;;;;;;53.67;23.50;;;10.40;1.00;;;;;;4461006;27;658927;-73
2024/03/14 11:03:34;;;;;;;51.03;22.53;;;10.70;8.50;;;;;;4437155;27;657711;-73
2024/03/14 11:06:24;;;;;;;44.30;20.07;;;11.10;99.90;;;;;;4456661;27;657899;-72
2024/03/14 11:09:11;;;;;;;49.73;22.87;;;10.60;1.00;;;;;;4435914;27;659642;-72
2024/03/14 11:11:58;;;;;;;55.80;24.47;;;10.40;1.00;;;;;;4436839;27;658492;-73
2024/03/14 11:14:46;;;;;;;54.03;21.00;;;10.60;1.00;;;;;;4456704;27;658559;-73
2024/03/14 11:17:33;;;;;;;61.70;24.97;;;10.90;1.00;;;;;;4437483;27;658135;-72
2024/03/14 11:20:25;;;;;;;48.70;23.20;;;10.60;99.90;;;;;;4459747;27;658839;-73
2024/03/14 11:23:13;;;;;;;52.40;23.70;;;10.80;99.90;;;;;;4420033;27;659623;-73
2024/03/14 11:26:02;;;;;;;50.67;23.60;;;11.30;77.50;;;;;;4468638;27;659027;-73
2024/03/14 11:28:51;;;;;;;45.20;21.23;;;11.60;1.00;;;;;;4436272;27;659320;-72
2024/03/14 11:31:39;;;;;;;41.93;21.33;;;11.60;99.90;;;;;;4437142;27;658051;-73
2024/03/14 11:34:26;;;;;;;43.40;20.90;;;11.70;99.90;;;;;;4459019;27;658764;-72
2024/03/14 11:37:14;;;;;;;42.57;20.83;;;11.60;99.90;;;;;;4435793;27;658808;-73
2024/03/14 11:40:01;;;;;;;46.27;20.33;;;11.50;99.90;;;;;;4455051;27;659268;-72
2024/03/14 11:42:49;;;;;;;49.73;23.03;;;11.10;99.90;;;;;;4435379;27;659088;-72
2024/03/14 11:45:37;;;;;;;56.43;25.23;;;10.70;99.90;;;;;;4454981;27;658098;-72
2024/03/14 11:48:25;;;;;;;51.63;24.60;;;10.60;1.00;;;;;;4435705;27;660190;-72
2024/03/14 11:51:18;;;;;;;54.83;23.50;;;10.30;99.90;;;;;;4456280;27;657749;-73
2024/03/14 11:54:07;;;;;;;49.23;22.50;;;10.30;99.90;;;;;;4432860;27;659301;-72
2024/03/14 11:56:58;;;;;;;49.60;23.83;;;10.50;99.90;;;;;;4435872;27;658779;-72
2024/03/14 11:59:48;;;;;;;44.90;22.07;;;10.10;1.00;;;;;;4432306;27;658761;-72
2024/03/14 12:02:35;;;;;;;49.23;22.27;;;10.10;1.00;;;;;;4432585;27;658516;-72
2024/03/14 12:05:27;;;;;;;48.80;23.47;;;10.00;99.90;;;;;;4445847;27;657467;-72
2024/03/14 12:08:15;;;;;;;50.30;22.37;;;9.70;5.00;;;;;;4449248;27;658990;-72
2024/03/14 12:11:04;;;;;;;49.83;23.40;;;9.40;99.90;;;;;;4438484;27;657171;-72
2024/03/14 12:13:52;;;;;;;49.07;23.47;;;9.50;99.90;;;;;;4455989;27;658098;-72
2024/03/14 12:16:44;;;;;;;49.43;23.87;;;9.20;1.00;;;;;;4432882;27;659365;-72
2024/03/14 12:19:31;;;;;;;69.23;29.67;;;9.20;99.90;;;;;;4433036;27;656712;-72
2024/03/14 12:22:21;;;;;;;47.70;23.67;;;9.20;99.90;;;;;;4436560;27;658458;-72
2024/03/14 12:25:09;;;;;;;51.00;23.57;;;9.30;99.90;;;;;;4436987;27;657664;-72
2024/03/14 12:27:58;;;;;;;63.67;27.47;;;9.30;99.90;;;;;;4459859;27;657697;-72
2024/03/14 12:30:56;;;;;;;50.07;23.90;;;9.20;99.90;;;;;;4432679;27;658264;-72
2024/03/14 12:33:44;;;;;;;64.87;28.13;;;9.10;99.90;;;;;;4415162;28;658724;-73
2024/03/14 12:36:32;;;;;;;79.33;36.17;;;9.00;99.90;;;;;;4459896;27;657729;-72
2024/03/14 12:39:21;;;;;;;87.83;40.47;;;9.00;1.00;;;;;;4432281;28;659034;-73
2024/03/14 12:42:09;;;;;;;84.20;37.00;;;9.00;1.00;;;;;;4437694;28;657738;-72
2024/03/14 12:44:58;;;;;;;85.80;33.97;;;9.00;1.00;;;;;;4457160;28;657002;-72
2024/03/14 12:47:47;;;;;;;83.03;34.30;;;9.00;1.00;;;;;;4437803;28;658025;-72
2024/03/14 12:50:34;;;;;;;96.20;37.47;;;9.00;1.00;;;;;;4437795;28;657451;-72
2024/03/14 12:53:24;;;;;;;84.20;34.27;;;9.00;1.00;;;;;;4456375;28;658109;-72
2024/03/14 12:56:11;;;;;;;61.17;26.90;;;8.90;1.00;;;;;;4434307;28;656688;-72
2024/03/14 12:58:58;;;;;;;60.57;28.07;;;8.90;1.00;;;;;;4437112;28;656886;-73
2024/03/14 13:01:46;;;;;;;58.23;27.63;;;8.90;1.00;;;;;;4456059;28;657712;-72
2024/03/14 13:04:38;;;;;;;67.73;29.70;;;8.90;1.00;;;;;;4437242;28;656551;-73
2024/03/14 13:07:26;;;;;;;58.73;27.63;;;8.60;99.90;;;;;;4437242;28;656571;-73
2024/03/14 13:10:15;;;;;;;68.70;29.90;;;8.60;99.90;;;;;;4435932;28;657878;-72
2024/03/14 13:13:03;;;;;;;62.37;26.97;;;8.60;99.90;;;;;;4450126;28;658460;-72
2024/03/14 13:15:52;;;;;;;64.30;28.40;;;8.70;99.90;;;;;;4472718;28;658621;-73
2024/03/14 13:18:40;;;;;;;59.55;27.23;;;8.80;99.90;;;;;;4436749;28;658492;-72
2024/03/14 13:21:30;;;;;;;60.13;26.97;;;8.80;99.90;;;;;;4454997;28;658225;-73
2024/03/14 13:24:19;;;;;;;97.83;37.37;;;8.80;99.90;;;;;;4428136;28;657346;-72
2024/03/14 13:27:08;;;;;;;89.53;35.78;;;8.90;99.90;;;;;;4468097;28;657760;-72
2024/03/14 13:29:55;;;;;;;59.00;26.90;;;8.90;56.80;;;;;;4431985;28;658123;-73
2024/03/14 13:32:44;;;;;;;65.35;27.50;;;9.00;1.00;;;;;;4438969;27;657150;-72
2024/03/14 13:35:32;;;;;;;65.57;28.10;;;9.00;1.00;;;;;;4460215;27;656872;-72
2024/03/14 13:38:20;;;;;;;59.63;26.87;;;9.00;1.00;;;;;;4439975;27;657846;-73
2024/03/14 13:41:08;;;;;;;61.30;27.23;;;9.00;1.00;;;;;;4440129;27;656229;-73
2024/03/14 13:43:55;;;;;;;58.47;27.00;;;9.00;1.00;;;;;;4463754;27;657313;-72
2024/03/14 13:46:43;;;;;;;62.10;27.97;;;9.00;1.00;;;;;;4442111;27;656298;-73
2024/03/14 13:49:37;;;;;;;74.57;30.60;;;9.00;1.00;;;;;;4472601;27;657960;-73
2024/03/14 13:52:24;;;;;;;66.00;27.70;;;9.00;47.60;;;;;;4441702;27;657235;-72
2024/03/14 13:55:33;;;;;;;61.00;28.10;;;9.00;1.00;;;;;;4456787;27;658055;-73
2024/03/14 13:58:22;;;;;;;76.17;30.40;;;9.10;1.00;;;;;;4441928;27;657220;-72
2024/03/14 14:01:19;;;;;;;68.70;28.77;;;9.10;1.00;;;;;;4436743;27;657628;-73
2024/03/14 14:04:07;;;;;;;70.87;28.60;;;9.10;1.00;;;;;;4437499;27;657392;-72
2024/03/14 14:06:55;;;;;;;64.87;27.00;;;9.10;1.00;;;;;;4436286;27;656885;-72
2024/03/14 14:09:43;;;;;;;69.37;28.53;;;9.20;1.00;;;;;;4454160;27;656458;-72